sensor_id;sensor_type;location;lat;lon;timestamp;P1;durP1;ratioP1;P2;durP2;ratioP2
11568;SDS011;5840;46.894;15.542;2024-02-14T00:01:31;4.83;;;4.43;;
11568;SDS011;5840;46.894;15.542;2024-02-14T00:03:57;4.40;;;3.70;;
11568;SDS011;5840;46.894;15.542;2024-02-14T00:06:24;4.57;;;4.00;;
11568;SDS011;5840;46.894;15.542;2024-02-14T00:08:51;3.60;;;3.40;;
11568;SDS011;5840;46.894;15.542;2024-02-14T00:11:17;3.80;;;3.50;;
11568;SDS011;5840;46.894;15.542;2024-02-14T00:13:44;3.50;;;3.20;;
11568;SDS011;5840;46.894;15.542;2024-02-14T00:16:11;5.03;;;3.67;;
11568;SDS011;5840;46.894;15.542;2024-02-14T00:26:07;5.20;;;3.90;;
11568;SDS011;5840;46.894;15.542;2024-02-14T00:28:34;4.00;;;3.70;;
11568;SDS011;5840;46.894;15.542;2024-02-14T00:31:00;5.97;;;5.37;;
11568;SDS011;5840;46.894;15.542;2024-02-14T00:33:27;7.40;;;6.70;;
11568;SDS011;5840;46.894;15.542;2024-02-14T00:35:53;6.90;;;6.20;;
11568;SDS011;5840;46.894;15.542;2024-02-14T00:38:19;7.83;;;6.70;;
11568;SDS011;5840;46.894;15.542;2024-02-14T00:40:46;6.67;;;6.07;;
11568;SDS011;5840;46.894;15.542;2024-02-14T00:43:13;8.40;;;7.43;;
11568;SDS011;5840;46.894;15.542;2024-02-14T00:53:14;6.20;;;5.60;;
11568;SDS011;5840;46.894;15.542;2024-02-14T00:55:43;6.93;;;6.33;;
11568;SDS011;5840;46.894;15.542;2024-02-14T00:58:13;6.77;;;6.17;;
11568;SDS011;5840;46.894;15.542;2024-02-14T01:00:41;6.80;;;5.60;;
11568;SDS011;5840;46.894;15.542;2024-02-14T01:03:10;5.97;;;5.43;;
11568;SDS011;5840;46.894;15.542;2024-02-14T01:05:41;5.70;;;5.20;;
11568;SDS011;5840;46.894;15.542;2024-02-14T01:08:12;5.90;;;5.40;;
11568;SDS011;5840;46.894;15.542;2024-02-14T01:13:42;7.73;;;5.80;;
11568;SDS011;5840;46.894;15.542;2024-02-14T01:16:11;5.13;;;4.73;;
11568;SDS011;5840;46.894;15.542;2024-02-14T01:18:43;6.33;;;5.77;;
11568;SDS011;5840;46.894;15.542;2024-02-14T01:21:14;5.60;;;5.10;;
11568;SDS011;5840;46.894;15.542;2024-02-14T01:23:43;5.70;;;5.20;;
11568;SDS011;5840;46.894;15.542;2024-02-14T01:26:17;6.10;;;5.60;;
11568;SDS011;5840;46.894;15.542;2024-02-14T01:28:49;7.63;;;5.83;;
11568;SDS011;5840;46.894;15.542;2024-02-14T01:31:22;6.00;;;5.40;;
11568;SDS011;5840;46.894;15.542;2024-02-14T01:38:57;5.90;;;5.40;;
11568;SDS011;5840;46.894;15.542;2024-02-14T01:41:26;5.83;;;5.40;;
11568;SDS011;5840;46.894;15.542;2024-02-14T01:43:55;5.97;;;5.40;;
11568;SDS011;5840;46.894;15.542;2024-02-14T01:46:24;5.63;;;5.20;;
11568;SDS011;5840;46.894;15.542;2024-02-14T01:48:56;6.63;;;5.87;;
11568;SDS011;5840;46.894;15.542;2024-02-14T01:51:23;6.10;;;5.53;;
11568;SDS011;5840;46.894;15.542;2024-02-14T01:53:52;5.80;;;5.10;;
11568;SDS011;5840;46.894;15.542;2024-02-14T01:56:27;6.00;;;5.50;;
11568;SDS011;5840;46.894;15.542;2024-02-14T02:04:29;6.70;;;6.20;;
11568;SDS011;5840;46.894;15.542;2024-02-14T02:07:00;6.40;;;5.80;;
11568;SDS011;5840;46.894;15.542;2024-02-14T02:09:28;6.27;;;5.73;;
11568;SDS011;5840;46.894;15.542;2024-02-14T02:11:57;6.67;;;5.50;;
11568;SDS011;5840;46.894;15.542;2024-02-14T02:14:26;4.90;;;4.50;;
11568;SDS011;5840;46.894;15.542;2024-02-14T02:16:53;4.93;;;4.47;;
11568;SDS011;5840;46.894;15.542;2024-02-14T02:19:19;5.20;;;4.70;;
11568;SDS011;5840;46.894;15.542;2024-02-14T02:21:48;6.20;;;4.63;;
11568;SDS011;5840;46.894;15.542;2024-02-14T02:29:25;5.13;;;4.63;;
11568;SDS011;5840;46.894;15.542;2024-02-14T02:31:54;5.13;;;4.60;;
11568;SDS011;5840;46.894;15.542;2024-02-14T02:34:20;5.10;;;4.57;;
11568;SDS011;5840;46.894;15.542;2024-02-14T02:36:47;4.53;;;4.13;;
11568;SDS011;5840;46.894;15.542;2024-02-14T02:39:16;4.53;;;4.13;;
11568;SDS011;5840;46.894;15.542;2024-02-14T02:41:43;4.70;;;4.30;;
11568;SDS011;5840;46.894;15.542;2024-02-14T02:44:10;4.80;;;4.40;;
11568;SDS011;5840;46.894;15.542;2024-02-14T02:46:38;4.70;;;4.30;;
11568;SDS011;5840;46.894;15.542;2024-02-14T02:54:08;4.30;;;4.00;;
11568;SDS011;5840;46.894;15.542;2024-02-14T02:56:36;4.67;;;4.27;;
11568;SDS011;5840;46.894;15.542;2024-02-14T02:59:02;4.53;;;4.13;;
11568;SDS011;5840;46.894;15.542;2024-02-14T03:01:34;4.17;;;3.80;;
11568;SDS011;5840;46.894;15.542;2024-02-14T03:04:01;3.97;;;3.67;;
11568;SDS011;5840;46.894;15.542;2024-02-14T03:06:28;4.60;;;4.13;;
11568;SDS011;5840;46.894;15.542;2024-02-14T03:08:54;4.87;;;4.43;;
11568;SDS011;5840;46.894;15.542;2024-02-14T03:11:23;5.00;;;4.43;;
11568;SDS011;5840;46.894;15.542;2024-02-14T03:18:54;4.40;;;4.00;;
11568;SDS011;5840;46.894;15.542;2024-02-14T03:21:21;4.57;;;4.17;;
11568;SDS011;5840;46.894;15.542;2024-02-14T03:23:47;4.67;;;4.27;;
11568;SDS011;5840;46.894;15.542;2024-02-14T03:26:13;4.37;;;4.07;;
11568;SDS011;5840;46.894;15.542;2024-02-14T03:28:40;4.57;;;4.17;;
11568;SDS011;5840;46.894;15.542;2024-02-14T03:31:06;4.70;;;4.40;;
11568;SDS011;5840;46.894;15.542;2024-02-14T03:33:33;4.50;;;4.10;;
11568;SDS011;5840;46.894;15.542;2024-02-14T03:38:37;6.33;;;5.00;;
11568;SDS011;5840;46.894;15.542;2024-02-14T03:41:05;6.00;;;5.27;;
11568;SDS011;5840;46.894;15.542;2024-02-14T03:43:32;5.50;;;5.10;;
11568;SDS011;5840;46.894;15.542;2024-02-14T03:45:58;5.40;;;4.93;;
11568;SDS011;5840;46.894;15.542;2024-02-14T03:48:25;5.10;;;4.70;;
11568;SDS011;5840;46.894;15.542;2024-02-14T03:50:51;4.93;;;4.53;;
11568;SDS011;5840;46.894;15.542;2024-02-14T03:53:18;4.80;;;4.40;;
11568;SDS011;5840;46.894;15.542;2024-02-14T03:55:46;5.03;;;4.50;;
11568;SDS011;5840;46.894;15.542;2024-02-14T04:03:15;5.83;;;5.23;;
11568;SDS011;5840;46.894;15.542;2024-02-14T04:05:41;5.20;;;4.80;;
11568;SDS011;5840;46.894;15.542;2024-02-14T04:08:08;5.23;;;4.83;;
11568;SDS011;5840;46.894;15.542;2024-02-14T04:10:35;5.27;;;4.77;;
11568;SDS011;5840;46.894;15.542;2024-02-14T04:13:02;4.60;;;4.30;;
11568;SDS011;5840;46.894;15.542;2024-02-14T04:15:29;6.70;;;5.10;;
11568;SDS011;5840;46.894;15.542;2024-02-14T04:17:55;5.23;;;4.70;;
11568;SDS011;5840;46.894;15.542;2024-02-14T04:20:23;6.23;;;5.70;;
11568;SDS011;5840;46.894;15.542;2024-02-14T04:30:13;5.57;;;5.07;;
11568;SDS011;5840;46.894;15.542;2024-02-14T04:32:40;6.13;;;5.60;;
11568;SDS011;5840;46.894;15.542;2024-02-14T04:35:08;6.27;;;5.67;;
11568;SDS011;5840;46.894;15.542;2024-02-14T04:37:35;7.17;;;6.47;;
11568;SDS011;5840;46.894;15.542;2024-02-14T04:40:01;6.80;;;6.10;;
11568;SDS011;5840;46.894;15.542;2024-02-14T04:42:29;6.47;;;5.97;;
11568;SDS011;5840;46.894;15.542;2024-02-14T04:44:55;6.30;;;5.70;;
11568;SDS011;5840;46.894;15.542;2024-02-14T04:47:22;6.37;;;5.77;;
11568;SDS011;5840;46.894;15.542;2024-02-14T04:54:52;6.80;;;6.20;;
11568;SDS011;5840;46.894;15.542;2024-02-14T04:57:19;7.10;;;6.43;;
11568;SDS011;5840;46.894;15.542;2024-02-14T04:59:45;6.60;;;5.97;;
11568;SDS011;5840;46.894;15.542;2024-02-14T05:02:12;6.13;;;5.57;;
11568;SDS011;5840;46.894;15.542;2024-02-14T05:04:38;6.50;;;5.90;;
11568;SDS011;5840;46.894;15.542;2024-02-14T05:07:05;7.17;;;6.10;;
11568;SDS011;5840;46.894;15.542;2024-02-14T05:09:32;6.53;;;5.93;;
11568;SDS011;5840;46.894;15.542;2024-02-14T05:11:59;6.80;;;5.93;;
11568;SDS011;5840;46.894;15.542;2024-02-14T05:21:53;7.43;;;6.70;;
11568;SDS011;5840;46.894;15.542;2024-02-14T05:24:20;7.03;;;6.43;;
11568;SDS011;5840;46.894;15.542;2024-02-14T05:26:46;7.67;;;6.60;;
11568;SDS011;5840;46.894;15.542;2024-02-14T05:29:13;7.63;;;6.60;;
11568;SDS011;5840;46.894;15.542;2024-02-14T05:31:43;7.60;;;6.30;;
11568;SDS011;5840;46.894;15.542;2024-02-14T05:34:10;8.13;;;7.43;;
11568;SDS011;5840;46.894;15.542;2024-02-14T05:36:36;7.50;;;6.80;;
11568;SDS011;5840;46.894;15.542;2024-02-14T05:39:04;7.20;;;6.50;;
11568;SDS011;5840;46.894;15.542;2024-02-14T05:48:56;6.67;;;6.00;;
11568;SDS011;5840;46.894;15.542;2024-02-14T05:51:22;7.03;;;6.43;;
11568;SDS011;5840;46.894;15.542;2024-02-14T05:53:48;6.60;;;5.93;;
11568;SDS011;5840;46.894;15.542;2024-02-14T05:56:15;6.73;;;6.13;;
11568;SDS011;5840;46.894;15.542;2024-02-14T05:58:42;7.03;;;6.43;;
11568;SDS011;5840;46.894;15.542;2024-02-14T06:01:09;7.50;;;6.77;;
11568;SDS011;5840;46.894;15.542;2024-02-14T06:03:35;7.43;;;6.73;;
11568;SDS011;5840;46.894;15.542;2024-02-14T06:06:02;7.23;;;6.53;;
11568;SDS011;5840;46.894;15.542;2024-02-14T06:15:57;8.17;;;6.50;;
11568;SDS011;5840;46.894;15.542;2024-02-14T06:18:23;6.90;;;6.30;;
11568;SDS011;5840;46.894;15.542;2024-02-14T06:20:50;7.53;;;6.60;;
11568;SDS011;5840;46.894;15.542;2024-02-14T06:23:16;7.97;;;7.17;;
11568;SDS011;5840;46.894;15.542;2024-02-14T06:25:43;7.90;;;7.07;;
11568;SDS011;5840;46.894;15.542;2024-02-14T06:28:09;7.20;;;6.53;;
11568;SDS011;5840;46.894;15.542;2024-02-14T06:30:36;7.07;;;6.40;;
11568;SDS011;5840;46.894;15.542;2024-02-14T06:33:03;7.37;;;6.63;;
11568;SDS011;5840;46.894;15.542;2024-02-14T06:40:33;6.70;;;6.10;;
11568;SDS011;5840;46.894;15.542;2024-02-14T06:43:02;7.37;;;6.70;;
11568;SDS011;5840;46.894;15.542;2024-02-14T06:45:31;6.50;;;5.90;;
11568;SDS011;5840;46.894;15.542;2024-02-14T06:47:58;6.87;;;6.03;;
11568;SDS011;5840;46.894;15.542;2024-02-14T06:50:24;5.80;;;5.30;;
11568;SDS011;5840;46.894;15.542;2024-02-14T06:52:51;6.07;;;5.57;;
11568;SDS011;5840;46.894;15.542;2024-02-14T06:55:17;6.07;;;5.47;;
11568;SDS011;5840;46.894;15.542;2024-02-14T06:57:44;6.00;;;5.37;;
11568;SDS011;5840;46.894;15.542;2024-02-14T07:07:29;5.97;;;5.30;;
11568;SDS011;5840;46.894;15.542;2024-02-14T07:10:00;6.03;;;5.47;;
11568;SDS011;5840;46.894;15.542;2024-02-14T07:12:31;6.20;;;5.60;;
11568;SDS011;5840;46.894;15.542;2024-02-14T07:14:58;5.60;;;5.10;;
11568;SDS011;5840;46.894;15.542;2024-02-14T07:17:24;6.60;;;6.00;;
11568;SDS011;5840;46.894;15.542;2024-02-14T07:19:51;5.93;;;5.23;;
11568;SDS011;5840;46.894;15.542;2024-02-14T07:22:17;5.30;;;4.80;;
11568;SDS011;5840;46.894;15.542;2024-02-14T07:24:45;5.80;;;5.30;;
11568;SDS011;5840;46.894;15.542;2024-02-14T07:32:15;5.37;;;4.87;;
11568;SDS011;5840;46.894;15.542;2024-02-14T07:34:42;5.83;;;5.17;;
11568;SDS011;5840;46.894;15.542;2024-02-14T07:37:09;6.23;;;5.03;;
11568;SDS011;5840;46.894;15.542;2024-02-14T07:39:35;5.37;;;4.87;;
11568;SDS011;5840;46.894;15.542;2024-02-14T07:42:02;5.60;;;5.13;;
11568;SDS011;5840;46.894;15.542;2024-02-14T07:44:29;6.67;;;5.03;;
11568;SDS011;5840;46.894;15.542;2024-02-14T07:46:56;5.30;;;4.87;;
11568;SDS011;5840;46.894;15.542;2024-02-14T07:49:23;5.83;;;5.33;;
11568;SDS011;5840;46.894;15.542;2024-02-14T07:59:18;6.40;;;4.87;;
11568;SDS011;5840;46.894;15.542;2024-02-14T08:01:45;6.00;;;5.30;;
11568;SDS011;5840;46.894;15.542;2024-02-14T08:04:12;5.73;;;5.23;;
11568;SDS011;5840;46.894;15.542;2024-02-14T08:06:40;6.13;;;4.90;;
11568;SDS011;5840;46.894;15.542;2024-02-14T08:09:07;4.60;;;4.20;;
11568;SDS011;5840;46.894;15.542;2024-02-14T08:11:35;6.47;;;5.20;;
11568;SDS011;5840;46.894;15.542;2024-02-14T08:14:03;6.60;;;6.00;;
11568;SDS011;5840;46.894;15.542;2024-02-14T08:16:32;6.20;;;5.60;;
11568;SDS011;5840;46.894;15.542;2024-02-14T08:24:11;6.53;;;5.83;;
11568;SDS011;5840;46.894;15.542;2024-02-14T08:26:37;6.97;;;6.47;;
11568;SDS011;5840;46.894;15.542;2024-02-14T08:29:04;6.53;;;5.93;;
11568;SDS011;5840;46.894;15.542;2024-02-14T08:31:30;5.90;;;5.40;;
11568;SDS011;5840;46.894;15.542;2024-02-14T08:33:57;8.37;;;5.30;;
11568;SDS011;5840;46.894;15.542;2024-02-14T08:36:24;5.23;;;4.83;;
11568;SDS011;5840;46.894;15.542;2024-02-14T08:38:50;5.67;;;5.17;;
11568;SDS011;5840;46.894;15.542;2024-02-14T08:41:17;5.30;;;4.80;;
11568;SDS011;5840;46.894;15.542;2024-02-14T08:49:01;5.83;;;5.30;;
11568;SDS011;5840;46.894;15.542;2024-02-14T08:51:30;5.27;;;4.77;;
11568;SDS011;5840;46.894;15.542;2024-02-14T08:53:56;5.57;;;4.93;;
11568;SDS011;5840;46.894;15.542;2024-02-14T08:56:24;5.73;;;5.23;;
11568;SDS011;5840;46.894;15.542;2024-02-14T08:58:51;9.23;;;6.00;;
11568;SDS011;5840;46.894;15.542;2024-02-14T09:01:17;7.47;;;5.70;;
11568;SDS011;5840;46.894;15.542;2024-02-14T09:03:44;6.07;;;5.53;;
11568;SDS011;5840;46.894;15.542;2024-02-14T09:06:13;7.67;;;6.13;;
11568;SDS011;5840;46.894;15.542;2024-02-14T09:13:42;7.33;;;5.40;;
11568;SDS011;5840;46.894;15.542;2024-02-14T09:16:08;5.80;;;4.83;;
11568;SDS011;5840;46.894;15.542;2024-02-14T09:18:36;5.00;;;4.50;;
11568;SDS011;5840;46.894;15.542;2024-02-14T09:21:02;6.10;;;5.00;;
11568;SDS011;5840;46.894;15.542;2024-02-14T09:23:30;4.63;;;4.20;;
11568;SDS011;5840;46.894;15.542;2024-02-14T09:25:57;5.10;;;4.20;;
11568;SDS011;5840;46.894;15.542;2024-02-14T09:28:23;4.60;;;4.10;;
11568;SDS011;5840;46.894;15.542;2024-02-14T09:30:51;4.57;;;4.00;;
11568;SDS011;5840;46.894;15.542;2024-02-14T09:40:46;5.70;;;4.03;;
11568;SDS011;5840;46.894;15.542;2024-02-14T09:43:16;5.13;;;4.43;;
11568;SDS011;5840;46.894;15.542;2024-02-14T09:45:47;5.03;;;4.27;;
11568;SDS011;5840;46.894;15.542;2024-02-14T09:48:16;5.57;;;4.10;;
11568;SDS011;5840;46.894;15.542;2024-02-14T09:50:44;5.40;;;4.00;;
11568;SDS011;5840;46.894;15.542;2024-02-14T09:53:12;6.07;;;4.63;;
11568;SDS011;5840;46.894;15.542;2024-02-14T09:55:40;4.37;;;3.97;;
11568;SDS011;5840;46.894;15.542;2024-02-14T09:58:08;4.20;;;3.90;;
11568;SDS011;5840;46.894;15.542;2024-02-14T10:05:38;4.30;;;3.77;;
11568;SDS011;5840;46.894;15.542;2024-02-14T10:08:04;4.00;;;3.70;;
11568;SDS011;5840;46.894;15.542;2024-02-14T10:10:31;4.83;;;3.73;;
11568;SDS011;5840;46.894;15.542;2024-02-14T10:13:00;4.50;;;4.10;;
11568;SDS011;5840;46.894;15.542;2024-02-14T10:15:28;3.80;;;3.50;;
11568;SDS011;5840;46.894;15.542;2024-02-14T10:17:55;3.83;;;3.53;;
11568;SDS011;5840;46.894;15.542;2024-02-14T10:20:23;3.40;;;3.10;;
11568;SDS011;5840;46.894;15.542;2024-02-14T10:22:51;3.53;;;3.23;;
11568;SDS011;5840;46.894;15.542;2024-02-14T10:30:20;3.80;;;3.40;;
11568;SDS011;5840;46.894;15.542;2024-02-14T10:32:47;5.83;;;3.47;;
11568;SDS011;5840;46.894;15.542;2024-02-14T10:35:14;3.77;;;3.47;;
11568;SDS011;5840;46.894;15.542;2024-02-14T10:37:41;3.30;;;3.03;;
11568;SDS011;5840;46.894;15.542;2024-02-14T10:40:07;3.83;;;3.40;;
11568;SDS011;5840;46.894;15.542;2024-02-14T10:42:34;3.07;;;2.80;;
11568;SDS011;5840;46.894;15.542;2024-02-14T10:45:01;3.57;;;3.27;;
11568;SDS011;5840;46.894;15.542;2024-02-14T10:47:30;3.77;;;3.47;;
11568;SDS011;5840;46.894;15.542;2024-02-14T10:55:03;3.97;;;3.53;;
11568;SDS011;5840;46.894;15.542;2024-02-14T10:57:30;4.47;;;3.80;;
11568;SDS011;5840;46.894;15.542;2024-02-14T10:59:57;4.07;;;3.60;;
11568;SDS011;5840;46.894;15.542;2024-02-14T11:02:26;4.07;;;3.67;;
11568;SDS011;5840;46.894;15.542;2024-02-14T11:04:55;3.77;;;3.40;;
11568;SDS011;5840;46.894;15.542;2024-02-14T11:07:21;3.60;;;3.30;;
11568;SDS011;5840;46.894;15.542;2024-02-14T11:09:48;3.73;;;3.43;;
11568;SDS011;5840;46.894;15.542;2024-02-14T11:15:09;4.30;;;3.37;;
11568;SDS011;5840;46.894;15.542;2024-02-14T11:17:36;3.40;;;3.20;;
11568;SDS011;5840;46.894;15.542;2024-02-14T11:20:11;3.13;;;2.93;;
11568;SDS011;5840;46.894;15.542;2024-02-14T11:22:49;3.47;;;3.17;;
11568;SDS011;5840;46.894;15.542;2024-02-14T11:25:18;3.23;;;3.03;;
11568;SDS011;5840;46.894;15.542;2024-02-14T11:27:47;3.77;;;3.37;;
11568;SDS011;5840;46.894;15.542;2024-02-14T11:30:15;4.83;;;3.80;;
11568;SDS011;5840;46.894;15.542;2024-02-14T11:32:52;3.83;;;3.53;;
11568;SDS011;5840;46.894;15.542;2024-02-14T11:35:46;5.17;;;3.63;;
11568;SDS011;5840;46.894;15.542;2024-02-14T11:38:14;3.10;;;2.90;;
11568;SDS011;5840;46.894;15.542;2024-02-14T11:40:40;3.40;;;3.20;;
11568;SDS011;5840;46.894;15.542;2024-02-14T11:43:10;3.20;;;3.00;;
11568;SDS011;5840;46.894;15.542;2024-02-14T11:45:37;3.37;;;3.07;;
11568;SDS011;5840;46.894;15.542;2024-02-14T11:48:07;3.43;;;3.20;;
11568;SDS011;5840;46.894;15.542;2024-02-14T11:50:33;3.30;;;3.03;;
11568;SDS011;5840;46.894;15.542;2024-02-14T11:53:00;3.10;;;2.90;;
11568;SDS011;5840;46.894;15.542;2024-02-14T12:02:56;2.30;;;2.10;;
11568;SDS011;5840;46.894;15.542;2024-02-14T12:05:22;2.67;;;2.47;;
11568;SDS011;5840;46.894;15.542;2024-02-14T12:07:49;4.10;;;2.83;;
11568;SDS011;5840;46.894;15.542;2024-02-14T12:10:15;2.73;;;2.53;;
11568;SDS011;5840;46.894;15.542;2024-02-14T12:12:44;2.50;;;2.40;;
11568;SDS011;5840;46.894;15.542;2024-02-14T12:15:11;2.97;;;2.67;;
11568;SDS011;5840;46.894;15.542;2024-02-14T12:17:40;8.70;;;4.60;;
11568;SDS011;5840;46.894;15.542;2024-02-14T12:20:11;2.40;;;2.30;;
11568;SDS011;5840;46.894;15.542;2024-02-14T12:22:52;2.67;;;2.47;;
11568;SDS011;5840;46.894;15.542;2024-02-14T12:25:18;2.80;;;2.60;;
11568;SDS011;5840;46.894;15.542;2024-02-14T12:27:49;2.63;;;2.43;;
11568;SDS011;5840;46.894;15.542;2024-02-14T12:30:17;2.93;;;2.73;;
11568;SDS011;5840;46.894;15.542;2024-02-14T12:32:43;2.50;;;2.30;;
11568;SDS011;5840;46.894;15.542;2024-02-14T12:35:10;3.13;;;2.83;;
11568;SDS011;5840;46.894;15.542;2024-02-14T12:37:36;3.43;;;2.90;;
11568;SDS011;5840;46.894;15.542;2024-02-14T12:40:05;2.83;;;2.63;;
11568;SDS011;5840;46.894;15.542;2024-02-14T12:47:50;2.80;;;2.60;;
11568;SDS011;5840;46.894;15.542;2024-02-14T12:50:16;3.50;;;2.63;;
11568;SDS011;5840;46.894;15.542;2024-02-14T12:52:45;2.77;;;2.57;;
11568;SDS011;5840;46.894;15.542;2024-02-14T12:55:11;2.37;;;2.27;;
11568;SDS011;5840;46.894;15.542;2024-02-14T12:57:38;2.30;;;2.13;;
11568;SDS011;5840;46.894;15.542;2024-02-14T13:00:05;2.90;;;2.70;;
11568;SDS011;5840;46.894;15.542;2024-02-14T13:02:34;3.00;;;2.70;;
11568;SDS011;5840;46.894;15.542;2024-02-14T13:05:01;2.70;;;2.50;;
11568;SDS011;5840;46.894;15.542;2024-02-14T13:12:32;3.43;;;2.77;;
11568;SDS011;5840;46.894;15.542;2024-02-14T13:14:58;2.40;;;2.10;;
11568;SDS011;5840;46.894;15.542;2024-02-14T13:17:24;2.53;;;2.20;;
11568;SDS011;5840;46.894;15.542;2024-02-14T13:19:51;4.37;;;3.10;;
11568;SDS011;5840;46.894;15.542;2024-02-14T13:22:18;4.70;;;3.60;;
11568;SDS011;5840;46.894;15.542;2024-02-14T13:24:44;2.40;;;2.20;;
11568;SDS011;5840;46.894;15.542;2024-02-14T13:27:11;2.30;;;2.10;;
11568;SDS011;5840;46.894;15.542;2024-02-14T13:29:38;2.67;;;2.47;;
11568;SDS011;5840;46.894;15.542;2024-02-14T13:39:32;2.77;;;2.00;;
11568;SDS011;5840;46.894;15.542;2024-02-14T13:41:58;2.90;;;2.63;;
11568;SDS011;5840;46.894;15.542;2024-02-14T13:44:26;4.00;;;3.17;;
11568;SDS011;5840;46.894;15.542;2024-02-14T13:46:52;2.50;;;2.40;;
11568;SDS011;5840;46.894;15.542;2024-02-14T13:49:19;2.60;;;2.40;;
11568;SDS011;5840;46.894;15.542;2024-02-14T13:51:47;2.73;;;2.43;;
11568;SDS011;5840;46.894;15.542;2024-02-14T13:54:15;2.40;;;2.20;;
11568;SDS011;5840;46.894;15.542;2024-02-14T13:56:42;3.57;;;2.87;;
11568;SDS011;5840;46.894;15.542;2024-02-14T14:04:11;3.70;;;2.87;;
11568;SDS011;5840;46.894;15.542;2024-02-14T14:06:38;2.70;;;2.50;;
11568;SDS011;5840;46.894;15.542;2024-02-14T14:09:04;4.67;;;4.27;;
11568;SDS011;5840;46.894;15.542;2024-02-14T14:11:33;4.90;;;4.40;;
11568;SDS011;5840;46.894;15.542;2024-02-14T14:13:59;3.53;;;2.60;;
11568;SDS011;5840;46.894;15.542;2024-02-14T14:16:26;6.57;;;5.50;;
11568;SDS011;5840;46.894;15.542;2024-02-14T14:18:52;7.20;;;6.13;;
11568;SDS011;5840;46.894;15.542;2024-02-14T14:21:19;4.40;;;3.77;;
11568;SDS011;5840;46.894;15.542;2024-02-14T14:31:08;4.23;;;3.40;;
11568;SDS011;5840;46.894;15.542;2024-02-14T14:33:36;3.30;;;2.90;;
11568;SDS011;5840;46.894;15.542;2024-02-14T14:36:03;3.90;;;3.53;;
11568;SDS011;5840;46.894;15.542;2024-02-14T14:38:30;5.60;;;3.50;;
11568;SDS011;5840;46.894;15.542;2024-02-14T14:40:56;3.13;;;2.93;;
11568;SDS011;5840;46.894;15.542;2024-02-14T14:43:24;3.50;;;3.17;;
11568;SDS011;5840;46.894;15.542;2024-02-14T14:45:50;4.17;;;3.77;;
11568;SDS011;5840;46.894;15.542;2024-02-14T14:48:18;6.70;;;3.50;;
11568;SDS011;5840;46.894;15.542;2024-02-14T14:55:50;3.83;;;3.20;;
11568;SDS011;5840;46.894;15.542;2024-02-14T14:58:18;3.30;;;3.10;;
11568;SDS011;5840;46.894;15.542;2024-02-14T15:00:44;5.80;;;2.87;;
11568;SDS011;5840;46.894;15.542;2024-02-14T15:03:11;3.17;;;2.87;;
11568;SDS011;5840;46.894;15.542;2024-02-14T15:05:37;3.33;;;3.03;;
11568;SDS011;5840;46.894;15.542;2024-02-14T15:08:04;4.27;;;3.23;;
11568;SDS011;5840;46.894;15.542;2024-02-14T15:10:30;3.83;;;3.23;;
11568;SDS011;5840;46.894;15.542;2024-02-14T15:12:57;3.40;;;3.10;;
11568;SDS011;5840;46.894;15.542;2024-02-14T15:22:53;4.33;;;3.50;;
11568;SDS011;5840;46.894;15.542;2024-02-14T15:25:19;3.70;;;3.40;;
11568;SDS011;5840;46.894;15.542;2024-02-14T15:27:46;3.37;;;3.07;;
11568;SDS011;5840;46.894;15.542;2024-02-14T15:30:19;3.97;;;3.57;;
11568;SDS011;5840;46.894;15.542;2024-02-14T15:33:04;3.60;;;3.30;;
11568;SDS011;5840;46.894;15.542;2024-02-14T15:35:48;3.40;;;3.20;;
11568;SDS011;5840;46.894;15.542;2024-02-14T15:38:16;3.80;;;3.50;;
11568;SDS011;5840;46.894;15.542;2024-02-14T15:40:44;3.37;;;3.10;;
11568;SDS011;5840;46.894;15.542;2024-02-14T15:43:35;3.43;;;3.10;;
11568;SDS011;5840;46.894;15.542;2024-02-14T15:46:01;5.17;;;4.33;;
11568;SDS011;5840;46.894;15.542;2024-02-14T15:48:27;3.90;;;3.50;;
11568;SDS011;5840;46.894;15.542;2024-02-14T15:50:54;3.63;;;3.33;;
11568;SDS011;5840;46.894;15.542;2024-02-14T15:53:22;3.47;;;3.20;;
11568;SDS011;5840;46.894;15.542;2024-02-14T15:55:51;3.20;;;3.00;;
11568;SDS011;5840;46.894;15.542;2024-02-14T15:58:18;3.40;;;3.10;;
11568;SDS011;5840;46.894;15.542;2024-02-14T16:00:45;3.57;;;3.27;;
11568;SDS011;5840;46.894;15.542;2024-02-14T16:10:40;3.83;;;3.30;;
11568;SDS011;5840;46.894;15.542;2024-02-14T16:13:07;3.77;;;3.47;;
11568;SDS011;5840;46.894;15.542;2024-02-14T16:15:33;3.70;;;3.40;;
11568;SDS011;5840;46.894;15.542;2024-02-14T16:18:00;4.27;;;3.30;;
11568;SDS011;5840;46.894;15.542;2024-02-14T16:20:26;3.30;;;3.10;;
11568;SDS011;5840;46.894;15.542;2024-02-14T16:22:52;3.77;;;3.00;;
11568;SDS011;5840;46.894;15.542;2024-02-14T16:25:18;3.50;;;3.20;;
11568;SDS011;5840;46.894;15.542;2024-02-14T16:27:45;6.47;;;3.73;;
11568;SDS011;5840;46.894;15.542;2024-02-14T16:37:06;3.47;;;3.27;;
11568;SDS011;5840;46.894;15.542;2024-02-14T16:39:32;4.07;;;3.20;;
11568;SDS011;5840;46.894;15.542;2024-02-14T16:41:58;3.97;;;3.57;;
11568;SDS011;5840;46.894;15.542;2024-02-14T16:44:24;4.03;;;3.50;;
11568;SDS011;5840;46.894;15.542;2024-02-14T16:46:51;4.57;;;3.60;;
11568;SDS011;5840;46.894;15.542;2024-02-14T16:49:17;3.50;;;3.20;;
11568;SDS011;5840;46.894;15.542;2024-02-14T16:51:44;3.67;;;3.23;;
11568;SDS011;5840;46.894;15.542;2024-02-14T16:54:11;3.60;;;3.40;;
11568;SDS011;5840;46.894;15.542;2024-02-14T17:04:01;3.67;;;3.37;;
11568;SDS011;5840;46.894;15.542;2024-02-14T17:06:27;3.93;;;3.60;;
11568;SDS011;5840;46.894;15.542;2024-02-14T17:08:54;4.67;;;4.17;;
11568;SDS011;5840;46.894;15.542;2024-02-14T17:11:20;4.90;;;4.20;;
11568;SDS011;5840;46.894;15.542;2024-02-14T17:13:46;5.43;;;4.40;;
11568;SDS011;5840;46.894;15.542;2024-02-14T17:16:12;4.43;;;4.03;;
11568;SDS011;5840;46.894;15.542;2024-02-14T17:18:40;4.20;;;3.90;;
11568;SDS011;5840;46.894;15.542;2024-02-14T17:21:07;4.53;;;4.13;;
11568;SDS011;5840;46.894;15.542;2024-02-14T17:28:37;4.70;;;4.30;;
11568;SDS011;5840;46.894;15.542;2024-02-14T17:31:03;5.10;;;4.70;;
11568;SDS011;5840;46.894;15.542;2024-02-14T17:33:30;4.67;;;4.27;;
11568;SDS011;5840;46.894;15.542;2024-02-14T17:35:56;4.60;;;4.30;;
11568;SDS011;5840;46.894;15.542;2024-02-14T17:38:22;4.03;;;3.73;;
11568;SDS011;5840;46.894;15.542;2024-02-14T17:40:48;4.23;;;3.93;;
11568;SDS011;5840;46.894;15.542;2024-02-14T17:43:15;5.20;;;3.60;;
11568;SDS011;5840;46.894;15.542;2024-02-14T17:45:43;4.30;;;3.90;;
11568;SDS011;5840;46.894;15.542;2024-02-14T17:53:13;4.10;;;3.80;;
11568;SDS011;5840;46.894;15.542;2024-02-14T17:55:40;3.53;;;3.33;;
11568;SDS011;5840;46.894;15.542;2024-02-14T17:58:07;4.73;;;3.93;;
11568;SDS011;5840;46.894;15.542;2024-02-14T18:00:34;4.40;;;4.00;;
11568;SDS011;5840;46.894;15.542;2024-02-14T18:03:01;3.93;;;3.53;;
11568;SDS011;5840;46.894;15.542;2024-02-14T18:05:27;3.63;;;3.37;;
11568;SDS011;5840;46.894;15.542;2024-02-14T18:07:53;4.00;;;3.60;;
11568;SDS011;5840;46.894;15.542;2024-02-14T18:10:20;4.07;;;3.50;;
11568;SDS011;5840;46.894;15.542;2024-02-14T18:17:50;4.00;;;3.70;;
11568;SDS011;5840;46.894;15.542;2024-02-14T18:20:17;3.90;;;3.60;;
11568;SDS011;5840;46.894;15.542;2024-02-14T18:22:43;4.50;;;4.10;;
11568;SDS011;5840;46.894;15.542;2024-02-14T18:25:10;3.93;;;3.63;;
11568;SDS011;5840;46.894;15.542;2024-02-14T18:27:37;5.67;;;5.17;;
11568;SDS011;5840;46.894;15.542;2024-02-14T18:30:03;6.97;;;6.43;;
11568;SDS011;5840;46.894;15.542;2024-02-14T18:32:30;8.07;;;7.37;;
11568;SDS011;5840;46.894;15.542;2024-02-14T18:34:58;6.07;;;5.57;;
11568;SDS011;5840;46.894;15.542;2024-02-14T18:44:49;3.90;;;3.60;;
11568;SDS011;5840;46.894;15.542;2024-02-14T18:47:15;5.57;;;5.07;;
11568;SDS011;5840;46.894;15.542;2024-02-14T18:49:41;4.50;;;4.10;;
11568;SDS011;5840;46.894;15.542;2024-02-14T18:52:10;4.20;;;3.77;;
11568;SDS011;5840;46.894;15.542;2024-02-14T18:54:36;4.40;;;4.00;;
11568;SDS011;5840;46.894;15.542;2024-02-14T18:57:02;5.23;;;4.40;;